Latest Weather Observations for Mount Boyce

IDN60901

Issued at 2:45 am EST Thursday 28 August 2014 (issued every 10 minutes, with the page automatically refreshed every 10 minutes)

About weather observations | Map of Sydney area stations | Latest observations for Sydney area | Other Formats
Station Details ID: 063292 Name: MOUNT BOYCE AWS Lat: -33.62 Lon: 150.27 Height: 1080.0 m
Data from the previous 72 hours. | See also: Recent months at Mount Boyce
Date/Time
EST
Tmp

°C
App
Tmp
°C
Dew
Point
°C
Rel
Hum
%
Delta-T

°C
Wind Press
QNH
hPa
Press
MSL
hPa
Rain
since
9 am
mm
Dir
 
Spd
km/h
Gust
km/h
Spd
kts
Gust
kts
28/02:35am 4.7 1.0 4.4 98 0.1 SSE 13 24 7 13 - - 5.8
28/02:30am 4.7 0.6 4.3 97 0.2 SSE 15 26 8 14 - - 5.8
28/02:00am 4.7 0.6 4.3 97 0.2 SSE 15 28 8 15 - - 5.8
28/01:30am 4.6 0.5 4.2 97 0.2 SSE 15 28 8 15 - - 5.8
28/01:00am 4.6 0.4 4.0 96 0.3 SSE 15 26 8 14 - - 5.8
28/12:30am 4.2 0.0 3.6 96 0.3 SSE 15 32 8 17 - - 5.8
28/12:00am 4.1 -0.6 3.4 95 0.3 SSE 17 30 9 16 - - 5.6
 
Date/Time
EST
Tmp

°C
App
Tmp
°C
Dew
Point
°C
Rel
Hum
%
Delta-T

°C
Wind Press
QNH
hPa
Press
MSL
hPa
Rain
since
9 am
mm
Dir
 
Spd
km/h
Gust
km/h
Spd
kts
Gust
kts
27/11:39pm 4.0 -0.3 3.1 94 0.4 SE 15 24 8 13 - - 5.6
27/11:36pm 4.0 -0.3 3.1 94 0.4 SSE 15 26 8 14 - - 5.6
27/11:30pm 4.0 -0.3 3.0 93 0.4 SSE 15 26 8 14 - - 5.6
27/11:00pm 4.5 0.7 3.9 96 0.3 SSE 13 24 7 13 - - 5.6
27/10:42pm 4.6 0.8 3.9 95 0.3 SSE 13 24 7 13 - - 5.6
27/10:30pm 4.4 0.2 3.7 95 0.3 SSE 15 24 8 13 - - 5.6
27/10:05pm 4.1 0.5 3.2 94 0.4 SE 11 22 6 12 - - 5.6
27/10:00pm 4.0 0.0 3.1 94 0.4 SE 13 24 7 13 - - 5.6
27/09:30pm 4.5 1.8 3.8 95 0.3 SSE 7 17 4 9 - - 5.6
27/09:00pm 4.8 1.0 4.1 95 0.3 SSE 13 26 7 14 - - 5.6
27/08:30pm 4.9 0.8 4.2 95 0.3 SE 15 32 8 17 - - 5.6
27/08:09pm 5.3 1.3 4.7 96 0.3 SE 15 28 8 15 - - 5.6
27/08:04pm 5.4 1.0 4.8 96 0.3 SE 17 32 9 17 - - 5.6
27/08:00pm 5.4 1.4 4.8 96 0.3 SE 15 32 8 17 - - 5.6
27/07:41pm 5.5 1.9 4.8 95 0.3 SSE 13 24 7 13 - - 5.0
27/07:30pm 5.6 2.0 4.9 95 0.3 ESE 13 26 7 14 - - 5.0
27/07:00pm 5.6 2.0 4.9 95 0.3 ESE 13 30 7 16 - - 5.0
27/06:30pm 5.9 3.1 5.2 95 0.3 SE 9 19 5 10 - - 5.0
27/06:20pm 5.9 2.3 5.2 95 0.3 SE 13 22 7 12 - - 4.8
27/06:13pm 5.9 2.3 5.2 95 0.3 SE 13 26 7 14 - - 4.8
27/06:06pm 5.9 2.0 5.2 95 0.3 SE 15 32 8 17 - - 4.8
27/06:00pm 6.0 2.5 5.3 95 0.3 SE 13 22 7 12 - - 4.8
27/05:41pm 6.1 2.5 5.2 94 0.4 SE 13 28 7 15 - - 4.8
27/05:30pm 6.2 2.3 5.2 93 0.5 SSE 15 26 8 14 - - 4.6
27/05:18pm 6.5 3.4 5.5 93 0.5 ESE 11 20 6 11 - - 4.6
27/05:05pm 6.8 2.9 5.3 90 0.7 SE 15 28 8 15 - - 4.6
27/05:00pm 6.9 2.9 5.1 88 0.8 SE 15 28 8 15 - - 4.4
27/04:48pm 7.4 3.9 5.4 87 1.0 ESE 13 24 7 13 - - 4.4
27/04:44pm 7.5 4.0 5.3 86 1.0 ESE 13 26 7 14 - - 4.4
27/04:31pm 8.5 5.1 6.0 84 1.2 SE 13 28 7 15 - - 4.4
27/04:30pm 8.4 5.0 5.7 83 1.3 SE 13 28 7 15 - - 4.4
27/04:00pm 8.2 4.8 6.0 86 1.1 ESE 13 24 7 13 - - 4.4
27/03:55pm 8.4 5.0 6.0 85 1.2 ESE 13 28 7 15 - - 4.4
27/03:30pm 8.2 5.6 6.3 88 0.9 SE 9 17 5 9 - - 4.4
27/03:00pm 8.4 5.7 7.3 93 0.6 SE 11 26 6 14 - - 4.4
27/02:57pm 8.2 5.0 7.0 92 0.6 ESE 13 26 7 14 - - 4.4
27/02:46pm 8.1 5.4 7.2 94 0.4 ESE 11 24 6 13 - - 4.4
27/02:40pm 7.3 3.5 5.9 91 0.7 ESE 15 26 8 14 - - 4.4
27/02:30pm 7.5 4.2 6.4 93 0.5 ESE 13 28 7 15 - - 4.4
27/02:21pm 8.7 6.6 8.1 96 0.3 ESE 9 17 5 9 - - 3.8
27/02:14pm 8.5 6.3 7.7 95 0.4 E 9 19 5 10 - - 3.8
27/02:09pm 8.3 5.6 7.4 94 0.5 E 11 22 6 12 - - 3.8
27/02:00pm 7.3 3.5 5.6 89 0.8 ESE 15 35 8 19 - - 3.8
27/01:51pm 8.2 4.0 5.7 84 1.2 SE 17 30 9 16 - - 2.0
27/01:30pm 9.2 5.9 6.5 83 1.3 ESE 13 28 7 15 - - 1.6
27/01:14pm 8.9 5.2 6.5 85 1.2 ESE 15 32 8 17 - - 1.6
27/01:00pm 9.1 5.6 7.1 87 1.0 ESE 15 35 8 19 - - 1.6
27/12:30pm 9.0 5.9 7.3 89 0.9 ESE 13 32 7 17 - - 1.6
27/12:00pm 8.2 5.1 7.1 93 0.5 SE 13 26 7 14 - - 1.6
27/11:30am 7.3 3.8 7.0 98 0.1 SE 15 28 8 15 - - 1.6
27/11:07am 7.4 3.9 7.3 99 0.0 SE 15 30 8 16 - - 1.6
27/11:00am 7.3 3.8 7.2 99 0.0 ESE 15 32 8 17 - - 1.6
27/10:43am 7.1 3.9 7.0 99 0.0 SE 13 28 7 15 - - 1.4
27/10:30am 7.2 3.3 7.1 99 0.0 ESE 17 30 9 16 - - 1.4
27/10:24am 6.8 2.8 6.7 99 0.0 ESE 17 30 9 16 - - 1.4
27/10:00am 6.6 2.9 6.5 99 0.0 SE 15 30 8 16 - - 1.4
27/09:30am 6.5 3.6 6.4 99 0.0 ESE 11 24 6 13 - - 1.0
27/09:00am 6.2 3.2 6.1 99 0.0 ESE 11 24 6 13 - - 40.8
27/08:30am 6.1 2.3 6.0 99 0.0 ESE 15 28 8 15 - - 39.8
27/08:00am 5.9 1.3 5.8 99 0.0 ESE 19 37 10 20 - - 39.0
27/07:30am 5.9 1.7 5.8 99 0.0 ESE 17 37 9 20 - - 38.8
27/07:00am 5.9 2.5 5.8 99 0.0 ESE 13 30 7 16 - - 38.4
27/06:30am 6.1 2.0 6.0 99 0.0 ESE 17 30 9 16 - - 38.0
27/06:00am 6.2 3.2 6.1 99 0.0 ESE 11 24 6 13 - - 36.6
27/05:30am 5.9 1.7 5.8 99 0.0 E 17 39 9 21 - - 36.0
27/05:00am 6.0 1.5 5.9 99 0.0 ESE 19 35 10 19 - - 35.8
27/04:48am 5.9 1.7 5.8 99 0.0 E 17 32 9 17 - - 35.8
27/04:30am 6.0 1.5 5.9 99 0.0 ESE 19 32 10 17 - - 35.6
27/04:26am 6.0 1.3 5.9 99 0.0 ESE 20 43 11 23 - - 35.6
27/04:00am 6.4 2.3 6.3 99 0.0 ESE 17 30 9 16 - - 35.4
27/03:47am 6.5 2.4 6.4 99 0.0 ESE 17 32 9 17 - - 35.2
27/03:30am 6.4 3.1 6.3 99 0.0 E 13 33 7 18 - - 34.6
27/03:00am 6.5 2.4 6.4 99 0.0 ESE 17 33 9 18 - - 34.0
27/02:30am 6.5 2.8 6.4 99 0.0 ESE 15 32 8 17 - - 33.6
27/02:00am 6.4 2.7 6.3 99 0.0 ESE 15 22 8 12 - - 32.6
27/01:30am 6.1 2.7 6.0 99 0.0 E 13 26 7 14 - - 32.2
27/01:00am 5.8 1.6 5.7 99 0.0 E 17 33 9 18 - - 32.0
27/12:30am 6.2 2.1 6.1 99 0.0 ESE 17 35 9 19 - - 30.8
27/12:00am 6.3 2.5 6.0 98 0.1 E 15 33 8 18 - - 27.8
 
Date/Time
EST
Tmp

°C
App
Tmp
°C
Dew
Point
°C
Rel
Hum
%
Delta-T

°C
Wind Press
QNH
hPa
Press
MSL
hPa
Rain
since
9 am
mm
Dir
 
Spd
km/h
Gust
km/h
Spd
kts
Gust
kts
26/11:30pm 6.4 1.9 6.1 98 0.1 ESE 19 37 10 20 - - 23.4
26/11:00pm 7.0 3.0 6.7 98 0.1 ESE 17 35 9 19 - - 20.4
26/10:30pm 7.1 3.1 6.8 98 0.1 E 17 39 9 21 - - 18.4
26/10:00pm 7.0 3.0 6.7 98 0.1 E 17 37 9 20 - - 17.4
26/09:30pm 7.1 3.5 6.8 98 0.1 E 15 30 8 16 - - 14.8
26/09:00pm 7.3 3.8 7.0 98 0.1 ESE 15 26 8 14 - - 13.6
26/08:30pm 7.1 3.5 6.8 98 0.1 E 15 28 8 15 - - 12.4
26/08:00pm 6.9 2.5 6.6 98 0.1 E 19 37 10 20 - - 12.0
26/07:41pm 7.0 3.8 6.7 98 0.1 E 13 30 7 16 - - 11.6
26/07:30pm 6.9 2.9 6.6 98 0.1 E 17 32 9 17 - - 11.2
26/07:28pm 6.8 2.8 6.5 98 0.1 E 17 32 9 17 - - 11.2
26/07:00pm 6.9 3.3 6.6 98 0.1 E 15 41 8 22 - - 11.2
26/06:30pm 6.9 3.6 6.6 98 0.1 E 13 28 7 15 - - 10.4
26/06:00pm 7.0 4.1 6.7 98 0.1 E 11 24 6 13 - - 9.0
26/05:30pm 7.1 3.5 6.8 98 0.1 E 15 32 8 17 - - 8.4
26/05:00pm 7.3 4.5 7.0 98 0.1 E 11 22 6 12 - - 8.2
26/04:30pm 7.6 5.3 7.3 98 0.1 E 9 19 5 10 - - 7.8
26/04:00pm 7.4 5.0 7.1 98 0.1 ESE 9 17 5 9 - - 7.6
26/03:30pm 7.4 5.4 7.0 97 0.2 SE 7 17 4 9 - - 6.8
26/03:00pm 7.3 4.5 6.9 97 0.2 E 11 19 6 10 - - 6.2
26/02:30pm 7.8 5.4 7.2 96 0.3 E 9 19 5 10 - - 5.8
26/02:08pm 7.7 4.9 6.8 94 0.4 ENE 11 24 6 13 - - 5.4
26/02:00pm 7.9 4.7 6.8 93 0.5 ENE 13 24 7 13 - - 5.2
26/01:45pm 8.3 5.6 7.2 93 0.5 ENE 11 20 6 11 - - 5.2
26/01:30pm 8.8 6.6 7.9 94 0.5 ENE 9 17 5 9 - - 5.2
26/01:21pm 8.8 5.9 8.0 95 0.4 ENE 13 20 7 11 - - 5.2
26/01:00pm 8.2 5.5 7.4 95 0.4 ENE 11 24 6 13 - - 5.2
26/12:55pm 8.1 5.4 7.3 95 0.4 ENE 11 24 6 13 - - 5.2
26/12:47pm 8.1 5.0 7.3 95 0.4 E 13 22 7 12 - - 5.0
26/12:30pm 8.7 6.2 8.4 98 0.2 ENE 11 20 6 11 - - 5.0
26/12:11pm 8.2 5.2 7.9 98 0.2 ENE 13 22 7 12 - - 5.0
26/12:00pm 7.6 4.1 7.3 98 0.1 E 15 35 8 19 - - 5.0
26/11:30am 7.1 3.9 6.7 97 0.2 ENE 13 26 7 14 - - 5.0
26/11:00am 7.5 3.2 6.9 96 0.3 ENE 19 35 10 19 - - 4.6
26/10:30am 8.3 6.7 7.9 97 0.2 E 6 19 3 10 - - 0.8
26/10:28am 8.5 6.9 8.1 97 0.2 E 6 11 3 6 - - 0.8
26/10:23am 8.5 6.9 8.1 97 0.2 E 6 11 3 6 - - 0.6
26/10:00am 8.2 6.9 7.6 96 0.3 E 4 13 2 7 - - 0.0
26/09:42am 7.9 5.6 7.3 96 0.3 E 9 17 5 9 - - 0.0
26/09:30am 8.4 6.7 8.3 99 0.1 E 7 17 4 9 - - 0.0
26/09:00am 8.8 7.8 8.7 99 0.1 ESE 4 9 2 5 - - 18.4
26/08:34am 7.4 5.4 7.1 98 0.1 ESE 7 19 4 10 - - 18.4
26/08:30am 7.1 5.0 6.8 98 0.1 ESE 7 19 4 10 - - 18.4
26/08:00am 6.7 4.5 6.4 98 0.1 SE 7 15 4 8 - - 18.4
26/07:30am 6.1 3.8 5.8 98 0.1 S 7 15 4 8 - - 18.4
26/07:00am 5.6 3.8 5.3 98 0.1 SSE 4 9 2 5 - - 18.4
26/06:30am 5.5 3.1 5.2 98 0.1 S 7 15 4 8 - - 18.4
26/06:00am 5.8 3.1 5.5 98 0.1 SSW 9 15 5 8 - - 18.4
26/05:30am 5.8 3.1 5.5 98 0.1 S 9 19 5 10 - - 18.4
26/05:00am 5.8 3.6 5.5 98 0.1 S 6 13 3 7 - - 18.4
26/04:30am 5.9 3.2 5.6 98 0.1 SSE 9 13 5 7 - - 18.4
26/04:00am 5.8 3.5 5.5 98 0.1 SSE 7 17 4 9 - - 18.4
26/03:30am 5.6 3.2 5.3 98 0.1 SSE 7 11 4 6 - - 18.4
26/03:21am 5.7 3.5 5.4 98 0.1 SSE 6 13 3 7 - - 18.4
26/03:02am 6.0 3.7 5.7 98 0.1 ESE 7 13 4 7 - - 18.4
26/03:00am 6.0 3.7 5.7 98 0.1 SE 7 13 4 7 - - 18.4
26/02:47am 6.0 3.7 5.7 98 0.1 ESE 7 13 4 7 - - 18.4
26/02:45am 6.0 3.7 5.7 98 0.1 ESE 7 13 4 7 - - 18.4
26/02:30am 6.1 3.1 5.8 98 0.1 ESE 11 17 6 9 - - 18.4
26/02:00am 6.3 4.1 6.0 98 0.1 SE 7 13 4 7 - - 18.2
26/01:30am 6.2 3.9 5.9 98 0.1 SW 7 13 4 7 - - 17.8
26/01:00am 6.2 4.9 5.8 97 0.2 S 2 9 1 5 - - 16.4
26/12:53am 6.2 4.1 5.8 97 0.2 S 6 9 3 5 - - 16.0
26/12:30am 6.2 3.9 5.8 97 0.2 ESE 7 11 4 6 - - 13.6
26/12:00am 6.2 3.5 5.8 97 0.2 SE 9 15 5 8 - - 10.8
 
Date/Time
EST
Tmp

°C
App
Tmp
°C
Dew
Point
°C
Rel
Hum
%
Delta-T

°C
Wind Press
QNH
hPa
Press
MSL
hPa
Rain
since
9 am
mm
Dir
 
Spd
km/h
Gust
km/h
Spd
kts
Gust
kts
25/11:30pm 6.0 3.3 5.6 97 0.2 SE 9 17 5 9 - - 8.6
25/11:26pm 6.0 3.7 5.6 97 0.2 SE 7 17 4 9 - - 8.4
25/11:05pm 6.0 3.7 5.6 97 0.2 SE 7 15 4 8 - - 8.0
25/11:00pm 6.0 3.7 5.6 97 0.2 SSE 7 17 4 9 - - 8.0
25/10:49pm 6.1 3.8 5.7 97 0.2 SSE 7 13 4 7 - - 8.0
25/10:30pm 6.3 4.0 5.9 97 0.2 E 7 15 4 8 - - 7.0
25/10:00pm 6.3 4.6 5.7 96 0.3 ESE 4 9 2 5 - - 4.4
25/09:44pm 6.1 4.7 5.5 96 0.3 WNW 2 6 1 3 - - 2.2
25/09:30pm 6.0 3.8 5.3 95 0.3 WSW 6 7 3 4 - - 2.0
25/09:12pm 6.1 5.0 5.1 93 0.5 CALM 0 7 0 4 - - 2.0
25/09:00pm 6.1 4.6 4.9 92 0.6 SSE 2 6 1 3 - - 2.0
25/08:30pm 6.1 4.6 5.2 94 0.4 SSE 2 6 1 3 - - 2.0
25/08:00pm 6.1 3.9 5.4 95 0.3 E 6 13 3 7 - - 2.0
25/07:45pm 6.3 3.6 5.6 95 0.3 E 9 26 5 14 - - 2.0
25/07:30pm 6.5 3.5 5.9 96 0.3 E 11 17 6 9 - - 2.0
25/07:19pm 6.7 3.7 6.1 96 0.3 E 11 19 6 10 - - 2.0
25/07:13pm 6.7 3.7 6.1 96 0.3 E 11 19 6 10 - - 2.0
25/07:00pm 6.8 3.8 6.2 96 0.3 E 11 19 6 10 - - 2.0
25/06:30pm 6.8 4.2 6.1 95 0.3 E 9 17 5 9 - - 2.0
25/06:23pm 6.8 4.2 5.9 94 0.4 E 9 17 5 9 - - 2.0
25/06:00pm 6.6 3.3 4.4 86 1.0 E 11 20 6 11 - - 2.0
25/05:30pm 6.3 3.9 4.5 88 0.8 E 6 7 3 4 - - 2.0
25/05:00pm 7.1 4.8 5.6 90 0.7 ENE 7 9 4 5 - - 2.0
25/04:30pm 8.0 6.0 6.9 93 0.5 ENE 7 11 4 6 - - 2.0
25/04:00pm 7.3 5.1 6.4 94 0.4 ENE 7 11 4 6 - - 2.0
25/03:30pm 7.2 4.7 6.6 96 0.3 ENE 9 15 5 8 - - 2.0
25/03:00pm 6.8 3.8 5.9 94 0.4 E 11 19 6 10 - - 2.0
25/02:38pm 6.7 3.3 5.7 93 0.5 E 13 22 7 12 - - 1.8
25/02:30pm 6.8 3.4 5.9 94 0.4 ENE 13 20 7 11 - - 1.6
25/02:00pm 7.3 3.4 5.4 88 0.9 ENE 15 30 8 16 - - 0.6
25/01:52pm 7.8 4.0 5.8 87 1.0 ENE 15 22 8 12 - - 0.4
25/01:30pm 10.1 7.9 6.4 78 1.8 E 7 13 4 7 - - 0.0
25/01:00pm 10.8 8.4 5.3 69 2.7 E 7 17 4 9 - - 0.0
25/12:30pm 12.4 9.8 6.0 65 3.2 E 9 19 5 10 - - 0.0
25/12:00pm 10.7 9.7 5.7 71 2.5 CALM 0 6 0 3 - - 0.0
25/11:30am 10.3 8.1 5.1 70 2.5 WSW 6 9 3 5 - - 0.0
25/11:00am 10.6 7.7 4.5 66 2.9 W 9 13 5 7 - - 0.0
25/10:30am 11.9 9.5 5.3 64 3.2 W 7 13 4 7 - - 0.0
25/10:00am 11.1 9.4 5.8 70 2.6 WNW 4 9 2 5 - - 0.0
25/09:30am 10.7 9.3 5.5 70 2.5 W 2 7 1 4 - - 0.0
25/09:00am 9.5 8.5 5.7 77 1.9 CALM 0 0 0 0 - - 0.2
25/08:30am 8.7 7.5 4.5 75 2.0 CALM 0 7 0 4 - - 0.2
25/08:00am 7.4 5.4 6.2 92 0.6 WSW 6 7 3 4 - - 0.2
25/07:30am 6.5 4.3 5.3 92 0.6 WSW 6 7 3 4 - - 0.2
25/07:00am 6.1 3.8 5.5 96 0.3 W 7 7 4 4 - - 0.2
25/06:30am 5.8 3.4 5.2 96 0.3 W 7 9 4 5 - - 0.2
25/06:00am 6.2 3.9 5.5 95 0.3 W 7 7 4 4 - - 0.2
25/05:30am 6.2 3.9 5.8 97 0.2 W 7 9 4 5 - - 0.2
25/05:00am 6.1 3.8 5.7 97 0.2 W 7 9 4 5 - - 0.2
25/04:30am 6.4 4.2 6.0 97 0.2 W 7 9 4 5 - - 0.2
25/04:00am 6.2 3.9 5.8 97 0.2 WSW 7 7 4 4 - - 0.2
25/03:30am 6.3 4.0 5.9 97 0.2 W 7 9 4 5 - - 0.0
25/03:00am 6.2 3.5 5.8 97 0.2 WNW 9 13 5 7 - - 0.0

Latest Capital City Observations: Canberra | Sydney | Melbourne | Brisbane | Adelaide | Perth | Hobart | Darwin

Other Formats:

Comma delimited format used in spreadsheet applications
http://www.bom.gov.au/fwo/IDN60901/IDN60901.94743.axf

JavaScript Object Notation format (JSON) in row-major order
http://www.bom.gov.au/fwo/IDN60901/IDN60901.94743.json